sensor_id;sensor_type;location;lat;lon;timestamp;temperature;humidity
21944;DHT22;11136;48.778;9.126;2023-02-11T00:02:02;2.00;91.20
21944;DHT22;11136;48.778;9.126;2023-02-11T00:04:29;2.00;91.20
21944;DHT22;11136;48.778;9.126;2023-02-11T00:06:55;2.00;91.20
21944;DHT22;11136;48.778;9.126;2023-02-11T00:09:21;2.10;91.20
21944;DHT22;11136;48.778;9.126;2023-02-11T00:11:47;2.00;91.20
21944;DHT22;11136;48.778;9.126;2023-02-11T00:14:12;1.90;91.20
21944;DHT22;11136;48.778;9.126;2023-02-11T00:16:38;1.90;91.30
21944;DHT22;11136;48.778;9.126;2023-02-11T00:19:04;1.90;91.30
21944;DHT22;11136;48.778;9.126;2023-02-11T00:21:31;1.90;91.30
21944;DHT22;11136;48.778;9.126;2023-02-11T00:23:57;1.90;91.40
21944;DHT22;11136;48.778;9.126;2023-02-11T00:26:26;1.80;91.40
21944;DHT22;11136;48.778;9.126;2023-02-11T00:28:53;1.80;91.50
21944;DHT22;11136;48.778;9.126;2023-02-11T00:31:20;2.00;91.60
21944;DHT22;11136;48.778;9.126;2023-02-11T00:33:46;1.80;91.60
21944;DHT22;11136;48.778;9.126;2023-02-11T00:36:18;1.80;91.60
21944;DHT22;11136;48.778;9.126;2023-02-11T00:38:45;1.80;91.70
21944;DHT22;11136;48.778;9.126;2023-02-11T00:41:12;1.70;91.70
21944;DHT22;11136;48.778;9.126;2023-02-11T00:43:39;1.70;91.70
21944;DHT22;11136;48.778;9.126;2023-02-11T00:46:08;1.70;91.70
21944;DHT22;11136;48.778;9.126;2023-02-11T00:48:34;1.70;91.80
21944;DHT22;11136;48.778;9.126;2023-02-11T00:51:00;1.70;91.80
21944;DHT22;11136;48.778;9.126;2023-02-11T00:53:26;1.70;91.90
21944;DHT22;11136;48.778;9.126;2023-02-11T00:55:52;1.70;91.90
21944;DHT22;11136;48.778;9.126;2023-02-11T00:58:17;1.70;91.90
21944;DHT22;11136;48.778;9.126;2023-02-11T01:00:43;1.60;92.00
21944;DHT22;11136;48.778;9.126;2023-02-11T01:03:09;1.60;92.00
21944;DHT22;11136;48.778;9.126;2023-02-11T01:05:35;1.60;92.00
21944;DHT22;11136;48.778;9.126;2023-02-11T01:08:00;1.60;92.00
21944;DHT22;11136;48.778;9.126;2023-02-11T01:10:26;1.60;92.10
21944;DHT22;11136;48.778;9.126;2023-02-11T01:12:53;1.60;92.10
21944;DHT22;11136;48.778;9.126;2023-02-11T01:15:19;1.50;92.10
21944;DHT22;11136;48.778;9.126;2023-02-11T01:17:46;1.70;92.20
21944;DHT22;11136;48.778;9.126;2023-02-11T01:20:20;1.50;92.20
21944;DHT22;11136;48.778;9.126;2023-02-11T01:22:47;1.50;92.30
21944;DHT22;11136;48.778;9.126;2023-02-11T01:25:13;1.50;92.30
21944;DHT22;11136;48.778;9.126;2023-02-11T01:27:41;1.50;92.30
21944;DHT22;11136;48.778;9.126;2023-02-11T01:30:08;1.50;92.40
21944;DHT22;11136;48.778;9.126;2023-02-11T01:32:34;1.50;92.40
21944;DHT22;11136;48.778;9.126;2023-02-11T01:35:00;1.50;92.40
21944;DHT22;11136;48.778;9.126;2023-02-11T01:37:26;1.50;92.50
21944;DHT22;11136;48.778;9.126;2023-02-11T01:39:51;1.50;92.50
21944;DHT22;11136;48.778;9.126;2023-02-11T01:42:20;1.40;92.50
21944;DHT22;11136;48.778;9.126;2023-02-11T01:44:51;1.40;92.50
21944;DHT22;11136;48.778;9.126;2023-02-11T01:47:17;1.40;92.50
21944;DHT22;11136;48.778;9.126;2023-02-11T01:49:46;1.60;92.60
21944;DHT22;11136;48.778;9.126;2023-02-11T01:54:47;1.40;92.60
21944;DHT22;11136;48.778;9.126;2023-02-11T01:57:34;1.40;92.60
21944;DHT22;11136;48.778;9.126;2023-02-11T02:02:54;1.40;92.70
21944;DHT22;11136;48.778;9.126;2023-02-11T02:05:47;1.40;92.70
21944;DHT22;11136;48.778;9.126;2023-02-11T02:10:51;1.30;92.70
21944;DHT22;11136;48.778;9.126;2023-02-11T02:13:21;1.30;92.70
21944;DHT22;11136;48.778;9.126;2023-02-11T02:16:05;1.30;92.80
21944;DHT22;11136;48.778;9.126;2023-02-11T02:27:19;1.30;92.90
21944;DHT22;11136;48.778;9.126;2023-02-11T02:35:14;1.20;93.10
21944;DHT22;11136;48.778;9.126;2023-02-11T02:40:24;1.30;93.10
21944;DHT22;11136;48.778;9.126;2023-02-11T02:42:52;1.20;93.20
21944;DHT22;11136;48.778;9.126;2023-02-11T02:45:19;1.30;93.20
21944;DHT22;11136;48.778;9.126;2023-02-11T02:47:45;1.20;93.50
21944;DHT22;11136;48.778;9.126;2023-02-11T02:50:13;1.20;93.20
21944;DHT22;11136;48.778;9.126;2023-02-11T02:53:31;1.30;93.30
21944;DHT22;11136;48.778;9.126;2023-02-11T03:01:38;1.30;93.30
21944;DHT22;11136;48.778;9.126;2023-02-11T03:09:33;1.20;93.40
21944;DHT22;11136;48.778;9.126;2023-02-11T03:12:02;1.20;93.50
21944;DHT22;11136;48.778;9.126;2023-02-11T03:14:29;1.20;93.50
21944;DHT22;11136;48.778;9.126;2023-02-11T03:16:58;1.20;93.60
21944;DHT22;11136;48.778;9.126;2023-02-11T03:19:37;1.40;93.70
21944;DHT22;11136;48.778;9.126;2023-02-11T03:22:29;1.20;93.70
21944;DHT22;11136;48.778;9.126;2023-02-11T03:24:52;1.20;93.70
21944;DHT22;11136;48.778;9.126;2023-02-11T03:27:42;1.20;93.80
21944;DHT22;11136;48.778;9.126;2023-02-11T03:30:15;1.20;93.80
21944;DHT22;11136;48.778;9.126;2023-02-11T03:33:06;1.20;93.80
21944;DHT22;11136;48.778;9.126;2023-02-11T03:35:44;1.20;93.70
21944;DHT22;11136;48.778;9.126;2023-02-11T03:38:18;1.10;93.70
21944;DHT22;11136;48.778;9.126;2023-02-11T03:40:47;1.10;93.80
21944;DHT22;11136;48.778;9.126;2023-02-11T03:43:19;1.20;93.90
21944;DHT22;11136;48.778;9.126;2023-02-11T03:45:48;1.10;94.30
21944;DHT22;11136;48.778;9.126;2023-02-11T03:48:22;1.10;94.00
21944;DHT22;11136;48.778;9.126;2023-02-11T03:50:51;1.10;94.30
21944;DHT22;11136;48.778;9.126;2023-02-11T03:53:19;1.10;94.00
21944;DHT22;11136;48.778;9.126;2023-02-11T03:55:48;1.10;94.10
21944;DHT22;11136;48.778;9.126;2023-02-11T03:58:14;1.10;94.10
21944;DHT22;11136;48.778;9.126;2023-02-11T04:00:41;1.10;94.10
21944;DHT22;11136;48.778;9.126;2023-02-11T04:03:08;1.10;94.10
21944;DHT22;11136;48.778;9.126;2023-02-11T04:05:34;1.10;94.20
21944;DHT22;11136;48.778;9.126;2023-02-11T04:08:00;1.10;94.30
21944;DHT22;11136;48.778;9.126;2023-02-11T04:10:25;1.20;94.50
21944;DHT22;11136;48.778;9.126;2023-02-11T04:12:51;1.20;94.50
21944;DHT22;11136;48.778;9.126;2023-02-11T04:15:17;1.30;94.60
21944;DHT22;11136;48.778;9.126;2023-02-11T04:17:43;1.30;94.70
21944;DHT22;11136;48.778;9.126;2023-02-11T04:20:09;1.40;94.80
21944;DHT22;11136;48.778;9.126;2023-02-11T04:22:35;1.30;94.80
21944;DHT22;11136;48.778;9.126;2023-02-11T04:25:01;1.30;94.90
21944;DHT22;11136;48.778;9.126;2023-02-11T04:27:27;1.40;94.90
21944;DHT22;11136;48.778;9.126;2023-02-11T04:29:52;1.40;95.00
21944;DHT22;11136;48.778;9.126;2023-02-11T04:32:18;1.50;95.00
21944;DHT22;11136;48.778;9.126;2023-02-11T04:34:44;1.50;95.10
21944;DHT22;11136;48.778;9.126;2023-02-11T04:37:10;1.50;95.10
21944;DHT22;11136;48.778;9.126;2023-02-11T04:39:35;1.50;95.10
21944;DHT22;11136;48.778;9.126;2023-02-11T04:42:01;1.60;95.20
21944;DHT22;11136;48.778;9.126;2023-02-11T04:44:27;1.60;95.20
21944;DHT22;11136;48.778;9.126;2023-02-11T04:46:52;1.60;95.30
21944;DHT22;11136;48.778;9.126;2023-02-11T04:49:18;1.60;95.30
21944;DHT22;11136;48.778;9.126;2023-02-11T04:51:44;1.70;95.40
21944;DHT22;11136;48.778;9.126;2023-02-11T04:54:10;1.90;95.50
21944;DHT22;11136;48.778;9.126;2023-02-11T04:56:35;1.70;95.60
21944;DHT22;11136;48.778;9.126;2023-02-11T04:59:01;1.70;95.60
21944;DHT22;11136;48.778;9.126;2023-02-11T05:01:27;1.80;95.70
21944;DHT22;11136;48.778;9.126;2023-02-11T05:03:52;1.80;95.70
21944;DHT22;11136;48.778;9.126;2023-02-11T05:06:18;1.80;95.80
21944;DHT22;11136;48.778;9.126;2023-02-11T05:08:43;1.90;95.80
21944;DHT22;11136;48.778;9.126;2023-02-11T05:11:15;1.90;95.90
21944;DHT22;11136;48.778;9.126;2023-02-11T05:13:41;1.90;96.00
21944;DHT22;11136;48.778;9.126;2023-02-11T05:16:08;1.90;96.00
21944;DHT22;11136;48.778;9.126;2023-02-11T05:18:37;1.90;96.10
21944;DHT22;11136;48.778;9.126;2023-02-11T05:21:12;2.00;96.20
21944;DHT22;11136;48.778;9.126;2023-02-11T05:23:38;2.00;96.20
21944;DHT22;11136;48.778;9.126;2023-02-11T05:26:05;2.00;96.20
21944;DHT22;11136;48.778;9.126;2023-02-11T05:28:31;2.00;96.30
21944;DHT22;11136;48.778;9.126;2023-02-11T05:30:57;2.00;96.40
21944;DHT22;11136;48.778;9.126;2023-02-11T05:33:23;2.10;96.50
21944;DHT22;11136;48.778;9.126;2023-02-11T05:35:49;2.00;96.50
21944;DHT22;11136;48.778;9.126;2023-02-11T05:38:15;2.20;96.60
21944;DHT22;11136;48.778;9.126;2023-02-11T05:40:41;2.10;96.60
21944;DHT22;11136;48.778;9.126;2023-02-11T05:43:07;2.10;96.60
21944;DHT22;11136;48.778;9.126;2023-02-11T05:45:33;2.20;97.10
21944;DHT22;11136;48.778;9.126;2023-02-11T05:47:59;2.10;96.80
21944;DHT22;11136;48.778;9.126;2023-02-11T05:50:25;2.20;96.90
21944;DHT22;11136;48.778;9.126;2023-02-11T05:52:51;2.20;96.90
21944;DHT22;11136;48.778;9.126;2023-02-11T05:55:17;2.40;96.90
21944;DHT22;11136;48.778;9.126;2023-02-11T05:57:43;2.20;96.90
21944;DHT22;11136;48.778;9.126;2023-02-11T06:00:09;2.30;97.00
21944;DHT22;11136;48.778;9.126;2023-02-11T06:02:34;2.30;97.00
21944;DHT22;11136;48.778;9.126;2023-02-11T06:05:00;2.30;97.00
21944;DHT22;11136;48.778;9.126;2023-02-11T06:07:26;2.40;97.10
21944;DHT22;11136;48.778;9.126;2023-02-11T06:09:52;2.40;97.10
21944;DHT22;11136;48.778;9.126;2023-02-11T06:12:17;2.40;97.10
21944;DHT22;11136;48.778;9.126;2023-02-11T06:14:43;2.50;97.20
21944;DHT22;11136;48.778;9.126;2023-02-11T06:17:08;2.50;97.30
21944;DHT22;11136;48.778;9.126;2023-02-11T06:19:34;2.50;97.30
21944;DHT22;11136;48.778;9.126;2023-02-11T06:22:00;2.50;97.30
21944;DHT22;11136;48.778;9.126;2023-02-11T06:24:25;2.50;97.30
21944;DHT22;11136;48.778;9.126;2023-02-11T06:26:51;2.50;97.30
21944;DHT22;11136;48.778;9.126;2023-02-11T06:29:16;2.50;97.30
21944;DHT22;11136;48.778;9.126;2023-02-11T06:31:42;2.50;97.30
21944;DHT22;11136;48.778;9.126;2023-02-11T06:34:08;2.50;97.40
21944;DHT22;11136;48.778;9.126;2023-02-11T06:36:35;2.50;97.40
21944;DHT22;11136;48.778;9.126;2023-02-11T06:39:01;2.60;97.40
21944;DHT22;11136;48.778;9.126;2023-02-11T06:41:26;2.50;97.50
21944;DHT22;11136;48.778;9.126;2023-02-11T06:43:52;2.80;97.60
21944;DHT22;11136;48.778;9.126;2023-02-11T06:46:18;2.60;97.60
21944;DHT22;11136;48.778;9.126;2023-02-11T06:48:43;2.60;97.70
21944;DHT22;11136;48.778;9.126;2023-02-11T06:51:10;2.60;97.70
21944;DHT22;11136;48.778;9.126;2023-02-11T06:53:44;2.60;98.10
21944;DHT22;11136;48.778;9.126;2023-02-11T06:56:12;2.60;97.80
21944;DHT22;11136;48.778;9.126;2023-02-11T06:58:38;2.70;97.90
21944;DHT22;11136;48.778;9.126;2023-02-11T07:01:09;2.70;97.90
21944;DHT22;11136;48.778;9.126;2023-02-11T07:03:36;2.70;98.00
21944;DHT22;11136;48.778;9.126;2023-02-11T07:06:02;2.70;98.00
21944;DHT22;11136;48.778;9.126;2023-02-11T07:08:30;2.70;98.10
21944;DHT22;11136;48.778;9.126;2023-02-11T07:10:55;2.70;98.10
21944;DHT22;11136;48.778;9.126;2023-02-11T07:13:21;2.80;98.20
21944;DHT22;11136;48.778;9.126;2023-02-11T07:15:47;2.90;98.20
21944;DHT22;11136;48.778;9.126;2023-02-11T07:18:12;3.00;98.30
21944;DHT22;11136;48.778;9.126;2023-02-11T07:20:38;2.80;98.20
21944;DHT22;11136;48.778;9.126;2023-02-11T07:23:04;2.80;98.60
21944;DHT22;11136;48.778;9.126;2023-02-11T07:25:29;2.80;98.30
21944;DHT22;11136;48.778;9.126;2023-02-11T07:27:55;2.80;98.30
21944;DHT22;11136;48.778;9.126;2023-02-11T07:30:21;2.80;98.40
21944;DHT22;11136;48.778;9.126;2023-02-11T07:32:47;2.90;98.50
21944;DHT22;11136;48.778;9.126;2023-02-11T07:35:13;2.90;98.60
21944;DHT22;11136;48.778;9.126;2023-02-11T07:37:39;2.90;98.60
21944;DHT22;11136;48.778;9.126;2023-02-11T07:40:06;3.20;98.80
21944;DHT22;11136;48.778;9.126;2023-02-11T07:42:35;3.00;98.70
21944;DHT22;11136;48.778;9.126;2023-02-11T07:45:01;3.00;98.80
21944;DHT22;11136;48.778;9.126;2023-02-11T07:47:26;3.10;98.80
21944;DHT22;11136;48.778;9.126;2023-02-11T07:49:52;3.10;98.80
21944;DHT22;11136;48.778;9.126;2023-02-11T07:52:18;3.30;99.00
21944;DHT22;11136;48.778;9.126;2023-02-11T07:54:44;3.40;99.00
21944;DHT22;11136;48.778;9.126;2023-02-11T07:57:10;3.20;99.00
21944;DHT22;11136;48.778;9.126;2023-02-11T07:59:35;3.50;99.20
21944;DHT22;11136;48.778;9.126;2023-02-11T08:02:01;3.30;99.10
21944;DHT22;11136;48.778;9.126;2023-02-11T08:04:27;3.40;99.20
21944;DHT22;11136;48.778;9.126;2023-02-11T08:06:53;3.40;99.20
21944;DHT22;11136;48.778;9.126;2023-02-11T08:09:21;3.40;99.20
21944;DHT22;11136;48.778;9.126;2023-02-11T08:11:47;3.50;99.20
21944;DHT22;11136;48.778;9.126;2023-02-11T08:14:13;3.50;99.30
21944;DHT22;11136;48.778;9.126;2023-02-11T08:16:39;3.60;99.30
21944;DHT22;11136;48.778;9.126;2023-02-11T08:19:09;3.60;99.20
21944;DHT22;11136;48.778;9.126;2023-02-11T08:21:35;3.70;99.20
21944;DHT22;11136;48.778;9.126;2023-02-11T08:24:02;3.70;99.10
21944;DHT22;11136;48.778;9.126;2023-02-11T08:26:29;3.70;99.10
21944;DHT22;11136;48.778;9.126;2023-02-11T08:28:56;3.70;99.10
21944;DHT22;11136;48.778;9.126;2023-02-11T08:31:25;3.90;99.20
21944;DHT22;11136;48.778;9.126;2023-02-11T08:33:51;3.90;99.20
21944;DHT22;11136;48.778;9.126;2023-02-11T08:36:21;3.90;99.10
21944;DHT22;11136;48.778;9.126;2023-02-11T08:38:47;3.90;99.10
21944;DHT22;11136;48.778;9.126;2023-02-11T08:41:14;3.90;99.10
21944;DHT22;11136;48.778;9.126;2023-02-11T08:43:42;4.00;99.10
21944;DHT22;11136;48.778;9.126;2023-02-11T08:46:09;4.10;99.10
21944;DHT22;11136;48.778;9.126;2023-02-11T08:48:36;4.10;99.10
21944;DHT22;11136;48.778;9.126;2023-02-11T08:51:06;4.30;99.40
21944;DHT22;11136;48.778;9.126;2023-02-11T08:53:33;4.50;99.80
21944;DHT22;11136;48.778;9.126;2023-02-11T08:55:58;4.70;99.90
21944;DHT22;11136;48.778;9.126;2023-02-11T08:58:24;5.00;99.90
21944;DHT22;11136;48.778;9.126;2023-02-11T09:00:50;5.30;99.90
21944;DHT22;11136;48.778;9.126;2023-02-11T09:03:15;5.60;99.90
21944;DHT22;11136;48.778;9.126;2023-02-11T09:05:42;5.90;99.90
21944;DHT22;11136;48.778;9.126;2023-02-11T09:08:09;6.10;99.90
21944;DHT22;11136;48.778;9.126;2023-02-11T09:10:35;6.30;99.80
21944;DHT22;11136;48.778;9.126;2023-02-11T09:13:01;6.50;99.60
21944;DHT22;11136;48.778;9.126;2023-02-11T09:15:27;6.60;99.50
21944;DHT22;11136;48.778;9.126;2023-02-11T09:17:52;6.80;99.40
21944;DHT22;11136;48.778;9.126;2023-02-11T09:20:18;6.70;99.20
21944;DHT22;11136;48.778;9.126;2023-02-11T09:22:44;7.10;99.00
21944;DHT22;11136;48.778;9.126;2023-02-11T09:25:10;7.30;98.70
21944;DHT22;11136;48.778;9.126;2023-02-11T09:27:36;7.40;98.40
21944;DHT22;11136;48.778;9.126;2023-02-11T09:30:01;7.50;98.20
21944;DHT22;11136;48.778;9.126;2023-02-11T09:32:27;7.60;98.00
21944;DHT22;11136;48.778;9.126;2023-02-11T09:34:52;7.70;97.80
21944;DHT22;11136;48.778;9.126;2023-02-11T09:37:18;7.90;97.60
21944;DHT22;11136;48.778;9.126;2023-02-11T09:39:44;8.00;97.40
21944;DHT22;11136;48.778;9.126;2023-02-11T09:45:19;8.10;96.70
21944;DHT22;11136;48.778;9.126;2023-02-11T09:47:55;8.30;96.50
21944;DHT22;11136;48.778;9.126;2023-02-11T09:50:38;8.30;96.10
21944;DHT22;11136;48.778;9.126;2023-02-11T09:53:12;8.30;94.90
21944;DHT22;11136;48.778;9.126;2023-02-11T09:55:46;8.20;94.70
21944;DHT22;11136;48.778;9.126;2023-02-11T09:58:22;8.10;94.20
21944;DHT22;11136;48.778;9.126;2023-02-11T10:01:07;8.10;94.40
21944;DHT22;11136;48.778;9.126;2023-02-11T10:09:10;8.10;94.40
21944;DHT22;11136;48.778;9.126;2023-02-11T10:23:14;8.00;94.40
21944;DHT22;11136;48.778;9.126;2023-02-11T10:25:46;8.10;94.60
21944;DHT22;11136;48.778;9.126;2023-02-11T10:28:16;8.20;94.60
21944;DHT22;11136;48.778;9.126;2023-02-11T10:30:55;8.30;94.60
21944;DHT22;11136;48.778;9.126;2023-02-11T10:33:33;8.40;94.30
21944;DHT22;11136;48.778;9.126;2023-02-11T10:36:00;8.50;94.10
21944;DHT22;11136;48.778;9.126;2023-02-11T10:38:26;8.60;94.10
21944;DHT22;11136;48.778;9.126;2023-02-11T10:40:52;8.70;94.00
21944;DHT22;11136;48.778;9.126;2023-02-11T10:43:22;8.80;93.90
21944;DHT22;11136;48.778;9.126;2023-02-11T10:45:53;8.90;93.90
21944;DHT22;11136;48.778;9.126;2023-02-11T10:53:38;9.30;93.60
21944;DHT22;11136;48.778;9.126;2023-02-11T10:56:05;9.30;93.50
21944;DHT22;11136;48.778;9.126;2023-02-11T10:58:56;9.30;93.30
21944;DHT22;11136;48.778;9.126;2023-02-11T11:02:19;9.40;93.10
21944;DHT22;11136;48.778;9.126;2023-02-11T11:07:29;9.60;93.50
21944;DHT22;11136;48.778;9.126;2023-02-11T11:10:01;9.70;93.20
21944;DHT22;11136;48.778;9.126;2023-02-11T11:15:02;9.80;93.20
21944;DHT22;11136;48.778;9.126;2023-02-11T11:17:38;9.80;92.90
21944;DHT22;11136;48.778;9.126;2023-02-11T11:20:13;9.90;92.80
21944;DHT22;11136;48.778;9.126;2023-02-11T11:22:40;10.10;92.60
21944;DHT22;11136;48.778;9.126;2023-02-11T11:25:26;10.10;92.50
21944;DHT22;11136;48.778;9.126;2023-02-11T11:27:56;10.20;92.30
21944;DHT22;11136;48.778;9.126;2023-02-11T11:30:26;10.30;92.30
21944;DHT22;11136;48.778;9.126;2023-02-11T11:32:52;10.40;92.20
21944;DHT22;11136;48.778;9.126;2023-02-11T11:35:29;10.40;92.00
21944;DHT22;11136;48.778;9.126;2023-02-11T11:37:59;10.50;91.70
21944;DHT22;11136;48.778;9.126;2023-02-11T11:40:30;10.60;91.70
21944;DHT22;11136;48.778;9.126;2023-02-11T11:43:18;10.70;91.60
21944;DHT22;11136;48.778;9.126;2023-02-11T11:45:54;10.80;91.30
21944;DHT22;11136;48.778;9.126;2023-02-11T11:48:41;10.90;91.20
21944;DHT22;11136;48.778;9.126;2023-02-11T11:51:11;10.90;91.00
21944;DHT22;11136;48.778;9.126;2023-02-11T11:53:50;11.00;90.90
21944;DHT22;11136;48.778;9.126;2023-02-11T11:56:21;11.10;90.80
21944;DHT22;11136;48.778;9.126;2023-02-11T11:58:49;11.30;90.80
21944;DHT22;11136;48.778;9.126;2023-02-11T12:01:35;11.30;90.70
21944;DHT22;11136;48.778;9.126;2023-02-11T12:04:19;11.50;90.50
21944;DHT22;11136;48.778;9.126;2023-02-11T12:06:52;11.60;90.40
21944;DHT22;11136;48.778;9.126;2023-02-11T12:09:24;11.80;90.30
21944;DHT22;11136;48.778;9.126;2023-02-11T12:12:23;11.80;90.00
21944;DHT22;11136;48.778;9.126;2023-02-11T12:23:20;12.10;88.70
21944;DHT22;11136;48.778;9.126;2023-02-11T12:26:05;12.20;88.70
21944;DHT22;11136;48.778;9.126;2023-02-11T12:34:14;12.70;88.60
21944;DHT22;11136;48.778;9.126;2023-02-11T12:36:53;12.90;87.60
21944;DHT22;11136;48.778;9.126;2023-02-11T12:50:28;13.30;85.30
21944;DHT22;11136;48.778;9.126;2023-02-11T12:53:13;13.30;86.20
21944;DHT22;11136;48.778;9.126;2023-02-11T12:55:45;13.20;85.70
21944;DHT22;11136;48.778;9.126;2023-02-11T12:58:17;13.20;85.70
21944;DHT22;11136;48.778;9.126;2023-02-11T13:00:51;13.20;85.30
21944;DHT22;11136;48.778;9.126;2023-02-11T13:03:29;13.20;84.80
21944;DHT22;11136;48.778;9.126;2023-02-11T13:06:14;13.20;84.50
21944;DHT22;11136;48.778;9.126;2023-02-11T13:08:46;13.20;84.10
21944;DHT22;11136;48.778;9.126;2023-02-11T13:11:20;13.20;84.40
21944;DHT22;11136;48.778;9.126;2023-02-11T13:13:51;13.20;84.10
21944;DHT22;11136;48.778;9.126;2023-02-11T13:26:37;13.60;83.90
21944;DHT22;11136;48.778;9.126;2023-02-11T13:32:10;14.00;84.70
21944;DHT22;11136;48.778;9.126;2023-02-11T13:39:59;14.70;83.60
21944;DHT22;11136;48.778;9.126;2023-02-11T13:42:26;14.80;83.60
21944;DHT22;11136;48.778;9.126;2023-02-11T13:44:53;14.80;83.40
21944;DHT22;11136;48.778;9.126;2023-02-11T13:47:33;14.80;82.90
21944;DHT22;11136;48.778;9.126;2023-02-11T13:50:00;14.70;82.70
21944;DHT22;11136;48.778;9.126;2023-02-11T13:52:33;14.80;82.70
21944;DHT22;11136;48.778;9.126;2023-02-11T13:55:21;14.70;82.20
21944;DHT22;11136;48.778;9.126;2023-02-11T14:14:27;14.40;81.60
21944;DHT22;11136;48.778;9.126;2023-02-11T14:19:33;14.40;81.20
21944;DHT22;11136;48.778;9.126;2023-02-11T14:22:12;14.30;81.10
21944;DHT22;11136;48.778;9.126;2023-02-11T14:27:42;14.30;81.00
21944;DHT22;11136;48.778;9.126;2023-02-11T14:30:27;14.20;80.60
21944;DHT22;11136;48.778;9.126;2023-02-11T14:33:09;14.20;80.70
21944;DHT22;11136;48.778;9.126;2023-02-11T14:41:23;14.10;80.10
21944;DHT22;11136;48.778;9.126;2023-02-11T14:44:00;14.00;80.00
21944;DHT22;11136;48.778;9.126;2023-02-11T14:46:28;13.90;80.00
21944;DHT22;11136;48.778;9.126;2023-02-11T14:49:02;13.80;80.10
21944;DHT22;11136;48.778;9.126;2023-02-11T14:51:39;13.70;80.00
21944;DHT22;11136;48.778;9.126;2023-02-11T14:54:14;13.60;80.00
21944;DHT22;11136;48.778;9.126;2023-02-11T14:56:42;13.60;80.30
21944;DHT22;11136;48.778;9.126;2023-02-11T14:59:20;13.60;80.60
21944;DHT22;11136;48.778;9.126;2023-02-11T15:01:51;13.60;80.50
21944;DHT22;11136;48.778;9.126;2023-02-11T15:04:27;13.60;80.40
21944;DHT22;11136;48.778;9.126;2023-02-11T15:06:54;13.60;80.10
21944;DHT22;11136;48.778;9.126;2023-02-11T15:09:51;13.50;79.70
21944;DHT22;11136;48.778;9.126;2023-02-11T15:12:25;13.30;79.10
21944;DHT22;11136;48.778;9.126;2023-02-11T15:14:55;13.00;78.90
21944;DHT22;11136;48.778;9.126;2023-02-11T15:17:24;13.10;79.30
21944;DHT22;11136;48.778;9.126;2023-02-11T15:19:53;12.90;79.60
21944;DHT22;11136;48.778;9.126;2023-02-11T15:22:26;12.90;80.00
21944;DHT22;11136;48.778;9.126;2023-02-11T15:25:08;12.90;80.00
21944;DHT22;11136;48.778;9.126;2023-02-11T15:27:43;12.80;80.00
21944;DHT22;11136;48.778;9.126;2023-02-11T15:32:53;12.60;80.50
21944;DHT22;11136;48.778;9.126;2023-02-11T15:35:30;12.50;80.80
21944;DHT22;11136;48.778;9.126;2023-02-11T15:37:57;12.40;81.00
21944;DHT22;11136;48.778;9.126;2023-02-11T15:40:27;12.40;81.30
21944;DHT22;11136;48.778;9.126;2023-02-11T15:42:57;12.30;81.60
21944;DHT22;11136;48.778;9.126;2023-02-11T15:45:27;12.50;81.80
21944;DHT22;11136;48.778;9.126;2023-02-11T15:48:06;12.20;81.80
21944;DHT22;11136;48.778;9.126;2023-02-11T15:50:34;12.10;81.90
21944;DHT22;11136;48.778;9.126;2023-02-11T15:55:43;11.80;82.20
21944;DHT22;11136;48.778;9.126;2023-02-11T15:58:09;11.80;82.40
21944;DHT22;11136;48.778;9.126;2023-02-11T16:00:47;11.70;82.70
21944;DHT22;11136;48.778;9.126;2023-02-11T16:03:22;11.60;83.10
21944;DHT22;11136;48.778;9.126;2023-02-11T16:05:48;11.60;83.30
21944;DHT22;11136;48.778;9.126;2023-02-11T16:08:28;11.50;83.40
21944;DHT22;11136;48.778;9.126;2023-02-11T16:11:01;11.50;83.70
21944;DHT22;11136;48.778;9.126;2023-02-11T16:13:30;11.50;83.90
21944;DHT22;11136;48.778;9.126;2023-02-11T16:16:03;11.50;84.00
21944;DHT22;11136;48.778;9.126;2023-02-11T16:18:49;11.40;84.00
21944;DHT22;11136;48.778;9.126;2023-02-11T16:21:16;11.40;84.10
21944;DHT22;11136;48.778;9.126;2023-02-11T16:23:50;11.30;84.20
21944;DHT22;11136;48.778;9.126;2023-02-11T16:26:25;11.30;84.40
21944;DHT22;11136;48.778;9.126;2023-02-11T16:29:03;11.20;84.60
21944;DHT22;11136;48.778;9.126;2023-02-11T16:31:38;11.20;84.80
21944;DHT22;11136;48.778;9.126;2023-02-11T16:34:11;11.10;84.80
21944;DHT22;11136;48.778;9.126;2023-02-11T16:36:37;11.10;85.10
21944;DHT22;11136;48.778;9.126;2023-02-11T16:39:03;11.10;85.20
21944;DHT22;11136;48.778;9.126;2023-02-11T16:41:28;11.00;86.10
21944;DHT22;11136;48.778;9.126;2023-02-11T16:43:56;11.00;85.70
21944;DHT22;11136;48.778;9.126;2023-02-11T16:46:23;10.90;85.60
21944;DHT22;11136;48.778;9.126;2023-02-11T16:48:49;10.80;85.70
21944;DHT22;11136;48.778;9.126;2023-02-11T16:51:15;10.80;86.00
21944;DHT22;11136;48.778;9.126;2023-02-11T16:53:40;10.80;86.20
21944;DHT22;11136;48.778;9.126;2023-02-11T16:56:13;10.70;86.40
21944;DHT22;11136;48.778;9.126;2023-02-11T16:58:40;10.70;86.70
21944;DHT22;11136;48.778;9.126;2023-02-11T17:01:06;10.70;86.80
21944;DHT22;11136;48.778;9.126;2023-02-11T17:03:32;10.70;87.00
21944;DHT22;11136;48.778;9.126;2023-02-11T17:06:02;10.70;87.10
21944;DHT22;11136;48.778;9.126;2023-02-11T17:08:30;10.60;87.20
21944;DHT22;11136;48.778;9.126;2023-02-11T17:10:55;10.60;87.30
21944;DHT22;11136;48.778;9.126;2023-02-11T17:13:21;10.60;87.50
21944;DHT22;11136;48.778;9.126;2023-02-11T17:15:47;10.70;87.70
21944;DHT22;11136;48.778;9.126;2023-02-11T17:18:13;10.60;87.80
21944;DHT22;11136;48.778;9.126;2023-02-11T17:20:39;10.60;87.90
21944;DHT22;11136;48.778;9.126;2023-02-11T17:23:05;10.60;88.00
21944;DHT22;11136;48.778;9.126;2023-02-11T17:25:30;10.60;88.10
21944;DHT22;11136;48.778;9.126;2023-02-11T17:27:56;10.50;88.20
21944;DHT22;11136;48.778;9.126;2023-02-11T17:30:22;10.50;88.40
21944;DHT22;11136;48.778;9.126;2023-02-11T17:32:48;10.50;88.40
21944;DHT22;11136;48.778;9.126;2023-02-11T17:35:14;10.50;88.50
21944;DHT22;11136;48.778;9.126;2023-02-11T17:37:40;10.50;88.50
21944;DHT22;11136;48.778;9.126;2023-02-11T17:40:07;10.40;88.60
21944;DHT22;11136;48.778;9.126;2023-02-11T17:42:32;10.40;88.70
21944;DHT22;11136;48.778;9.126;2023-02-11T17:44:58;10.30;89.40
21944;DHT22;11136;48.778;9.126;2023-02-11T17:47:24;10.30;88.90
21944;DHT22;11136;48.778;9.126;2023-02-11T17:49:50;10.30;89.00
21944;DHT22;11136;48.778;9.126;2023-02-11T17:52:15;10.20;89.10
21944;DHT22;11136;48.778;9.126;2023-02-11T17:54:43;10.20;89.20
21944;DHT22;11136;48.778;9.126;2023-02-11T17:57:11;10.20;89.60
21944;DHT22;11136;48.778;9.126;2023-02-11T17:59:38;10.10;89.30
21944;DHT22;11136;48.778;9.126;2023-02-11T18:02:04;10.00;89.60
21944;DHT22;11136;48.778;9.126;2023-02-11T18:04:30;10.00;89.80
21944;DHT22;11136;48.778;9.126;2023-02-11T18:06:56;10.00;90.00
21944;DHT22;11136;48.778;9.126;2023-02-11T18:09:23;9.90;90.00
21944;DHT22;11136;48.778;9.126;2023-02-11T18:11:49;9.90;90.10
21944;DHT22;11136;48.778;9.126;2023-02-11T18:14:17;9.90;90.10
21944;DHT22;11136;48.778;9.126;2023-02-11T18:16:43;9.90;90.20
21944;DHT22;11136;48.778;9.126;2023-02-11T18:19:11;9.80;90.20